Cochituate, Massachusetts
Current Conditions -  °F | °C
As of 12:56 PM on Friday 28 Nov 2014 (Local Time) from KBED Reporting Station
Broken Clouds Broken Clouds  
Wind Chill: 24°   Ceiling: 3600
Heat Index: 33°   Visibility: 10mi
Dew Point: 20°   Wind: 12mph
Humidity: 59%   Direction: 310°NW
Pressure: 30.04"   Gusts: NA
Location:  42.3586°N, 71.3587°W
Report Text: KBED 281756Z 31010KT 10SM BKN036 01/M07 A3004 RMK AO2 SLP190 60000 T00061067 10006 21028 58005
Loading
Personal Weather Stations






























Interactive Weather Map New forecast layout! Learn more

10-Day Weather Forecast

Advertisements
Track Severe Weather on mobile